createdAt,value
2022-10-11T00:00:24.043Z,64.36
2022-10-11T00:05:31.751Z,64.33
2022-10-11T00:10:38.918Z,64.51
2022-10-11T00:15:46.117Z,64.40
2022-10-11T00:21:01.869Z,64.65
2022-10-11T00:26:10.911Z,64.60
2022-10-11T00:31:19.039Z,64.67
2022-10-11T00:36:26.551Z,64.67
2022-10-11T00:41:33.955Z,64.57
2022-10-11T00:46:42.247Z,64.64
2022-10-11T00:51:53.892Z,64.55
2022-10-11T00:57:05.299Z,64.75
2022-10-11T01:02:14.628Z,64.76
2022-10-11T01:07:23.327Z,64.60
2022-10-11T01:12:33.463Z,64.47
2022-10-11T01:17:48.131Z,64.46
2022-10-11T01:23:27.995Z,64.63
2022-10-11T01:28:51.228Z,64.65
2022-10-11T01:34:04.010Z,65.07
2022-10-11T01:39:16.587Z,64.89
2022-10-11T01:44:25.695Z,65.01
2022-10-11T01:49:33.072Z,64.96
2022-10-11T01:55:09.015Z,64.95
2022-10-11T02:00:21.489Z,65.10
2022-10-11T02:05:37.907Z,65.02
2022-10-11T02:10:49.818Z,65.08
2022-10-11T02:16:01.031Z,65.11
2022-10-11T02:21:12.246Z,65.09
2022-10-11T02:26:23.726Z,65.28
2022-10-11T02:31:33.000Z,65.14
2022-10-11T02:36:49.585Z,65.85
2022-10-11T02:42:02.023Z,65.67
2022-10-11T02:47:10.691Z,66.08
2022-10-11T02:52:18.531Z,65.95
2022-10-11T02:57:26.484Z,66.47
2022-10-11T03:02:34.703Z,66.14
2022-10-11T03:07:42.867Z,66.34
2022-10-11T03:12:50.968Z,66.24
2022-10-11T03:17:59.210Z,66.41
2022-10-11T03:23:07.164Z,66.65
2022-10-11T03:28:17.022Z,66.58
2022-10-11T03:33:25.037Z,66.98
2022-10-11T03:38:32.957Z,66.96
2022-10-11T03:43:40.744Z,66.73
2022-10-11T03:48:48.704Z,66.68
2022-10-11T03:53:56.724Z,66.54
2022-10-11T03:59:04.785Z,66.58
2022-10-11T04:04:12.694Z,66.53
2022-10-11T04:09:20.990Z,66.68
2022-10-11T04:14:28.934Z,66.56
2022-10-11T04:19:37.652Z,66.76
2022-10-11T04:24:45.911Z,66.57
2022-10-11T04:29:53.764Z,66.66
2022-10-11T04:35:03.360Z,66.83
2022-10-11T04:40:14.359Z,66.96
2022-10-11T04:45:22.228Z,66.88
2022-10-11T04:50:29.389Z,67.22
2022-10-11T04:55:38.773Z,67.19
2022-10-11T05:00:47.688Z,67.37
2022-10-11T05:05:55.865Z,67.81
2022-10-11T05:11:05.926Z,68.13
2022-10-11T05:16:15.411Z,67.97
2022-10-11T05:21:25.429Z,68.36
2022-10-11T05:26:33.316Z,68.57
2022-10-11T05:31:41.169Z,68.51
2022-10-11T05:36:49.012Z,68.49
2022-10-11T05:41:57.208Z,68.81
2022-10-11T05:47:05.295Z,68.94
2022-10-11T05:52:14.257Z,69.02
2022-10-11T05:57:22.099Z,69.00
2022-10-11T06:02:30.438Z,68.85
2022-10-11T06:07:39.652Z,69.15
2022-10-11T06:12:47.840Z,68.97
2022-10-11T06:17:56.056Z,69.18
2022-10-11T06:23:04.389Z,69.05
2022-10-11T06:28:12.429Z,69.40
2022-10-11T06:33:20.438Z,69.20
2022-10-11T06:38:28.594Z,69.53
2022-10-11T06:43:36.464Z,69.77
2022-10-11T06:48:46.362Z,69.62
2022-10-11T06:53:55.895Z,69.89
2022-10-11T06:59:04.287Z,69.80
2022-10-11T07:04:12.145Z,70.13
2022-10-11T07:09:19.946Z,70.20
2022-10-11T07:14:28.117Z,70.46
2022-10-11T07:19:36.015Z,70.76
2022-10-11T07:24:43.982Z,71.18
2022-10-11T07:29:52.200Z,70.80
2022-10-11T07:35:00.171Z,70.82
2022-10-11T07:40:11.216Z,70.84
2022-10-11T07:45:19.856Z,70.64
2022-10-11T07:50:28.385Z,70.87
2022-10-11T07:55:40.647Z,70.91
2022-10-11T08:00:54.570Z,71.13
2022-10-11T08:06:05.895Z,70.91
2022-10-11T08:11:20.759Z,70.62
2022-10-11T08:16:28.563Z,70.63
2022-10-11T08:21:35.777Z,70.38
2022-10-11T08:26:43.643Z,69.81
2022-10-11T08:31:51.820Z,69.78
2022-10-11T08:36:59.984Z,69.88
2022-10-11T08:42:15.225Z,69.53
2022-10-11T08:47:27.597Z,69.32
2022-10-11T08:52:46.359Z,69.30
2022-10-11T08:57:56.956Z,69.03
2022-10-11T09:03:13.635Z,68.90
2022-10-11T09:08:28.591Z,68.34
2022-10-11T09:13:53.985Z,67.53
2022-10-11T09:19:20.524Z,67.58
2022-10-11T09:24:38.935Z,67.09
2022-10-11T09:30:03.668Z,66.99
2022-10-11T09:35:16.390Z,66.03
2022-10-11T09:40:46.198Z,66.11
2022-10-11T09:45:54.469Z,65.87
2022-10-11T09:51:08.636Z,65.66
2022-10-11T09:56:17.284Z,64.74
2022-10-11T10:01:30.252Z,64.13
2022-10-11T10:06:38.508Z,63.46
2022-10-11T10:11:46.436Z,63.53
2022-10-11T10:17:04.392Z,62.56
2022-10-11T10:22:22.127Z,62.10
2022-10-11T10:27:31.992Z,61.79
2022-10-11T10:32:48.628Z,61.64
2022-10-11T10:38:07.106Z,60.76
2022-10-11T10:43:20.910Z,60.28
2022-10-11T10:49:11.663Z,59.98
2022-10-11T10:54:17.015Z,59.76
2022-10-11T10:59:40.765Z,59.44
2022-10-11T11:04:54.379Z,59.01
2022-10-11T11:10:08.235Z,58.76
2022-10-11T11:15:31.231Z,58.48
2022-10-11T11:21:07.456Z,58.32
2022-10-11T11:26:22.711Z,57.15
2022-10-11T11:31:47.731Z,56.95
2022-10-11T11:37:00.729Z,56.34
2022-10-11T11:42:16.880Z,56.22
2022-10-11T11:47:32.063Z,55.84
2022-10-11T11:52:45.372Z,55.57
2022-10-11T11:58:10.696Z,55.04
2022-10-11T12:03:30.180Z,54.17
2022-10-11T12:08:39.612Z,53.65
2022-10-11T12:13:48.541Z,53.86
2022-10-11T12:19:05.419Z,53.91
2022-10-11T12:24:23.505Z,53.74
2022-10-11T12:29:47.436Z,54.21
2022-10-11T12:35:33.972Z,54.13
2022-10-11T12:40:46.240Z,52.94
2022-10-11T12:45:54.026Z,52.72
2022-10-11T12:51:24.588Z,52.45
2022-10-11T12:56:45.825Z,52.16
2022-10-11T13:01:56.497Z,52.52
2022-10-11T13:07:08.089Z,52.22
2022-10-11T13:12:19.801Z,51.83
2022-10-11T13:17:38.012Z,51.99
2022-10-11T13:22:50.068Z,51.09
2022-10-11T13:27:59.896Z,49.78
2022-10-11T13:33:13.252Z,49.17
2022-10-11T13:38:25.270Z,48.65
2022-10-11T13:43:32.007Z,48.96
2022-10-11T13:48:44.255Z,48.04
2022-10-11T13:54:09.490Z,48.74
2022-10-11T13:59:23.070Z,48.70
2022-10-11T14:04:40.747Z,48.86
2022-10-11T14:09:50.496Z,48.89
2022-10-11T14:14:59.527Z,49.04
2022-10-11T14:20:19.443Z,48.90
2022-10-11T14:25:28.978Z,48.73
2022-10-11T14:30:37.098Z,49.15
2022-10-11T14:35:45.296Z,49.45
2022-10-11T14:40:53.387Z,49.57
2022-10-11T14:46:02.216Z,49.71
2022-10-11T14:51:15.433Z,49.90
2022-10-11T14:56:23.849Z,49.99
2022-10-11T15:01:32.826Z,50.13
2022-10-11T15:06:42.674Z,50.05
2022-10-11T15:11:51.476Z,50.11
2022-10-11T15:16:59.335Z,50.50
2022-10-11T15:22:07.577Z,50.51
2022-10-11T15:27:17.579Z,50.62
2022-10-11T15:32:26.249Z,50.67
2022-10-11T15:37:37.302Z,50.92
2022-10-11T15:42:46.326Z,51.19
2022-10-11T15:47:55.296Z,51.01
2022-10-11T15:53:04.194Z,50.92
2022-10-11T15:58:16.549Z,50.83
2022-10-11T16:03:26.745Z,50.85
2022-10-11T16:08:35.620Z,51.54
2022-10-11T16:13:43.590Z,51.52
2022-10-11T16:18:53.662Z,52.28
2022-10-11T16:24:01.738Z,52.17
2022-10-11T16:29:09.662Z,52.30
2022-10-11T16:34:17.463Z,52.95
2022-10-11T16:39:25.749Z,53.30
2022-10-11T16:44:34.257Z,53.20
2022-10-11T16:49:43.005Z,53.58
2022-10-11T16:54:51.985Z,53.67
2022-10-11T17:00:00.129Z,53.61
2022-10-11T17:05:08.844Z,54.00
2022-10-11T17:10:16.875Z,54.14
2022-10-11T17:15:26.468Z,54.78
2022-10-11T17:20:34.689Z,54.65
2022-10-11T17:25:47.452Z,54.65
2022-10-11T17:30:59.618Z,55.23
2022-10-11T17:36:15.510Z,55.23
2022-10-11T17:41:28.140Z,55.48
2022-10-11T17:46:40.501Z,55.54
2022-10-11T17:51:48.586Z,55.97
2022-10-11T17:56:56.476Z,55.77
2022-10-11T18:02:04.995Z,56.54
2022-10-11T18:07:13.112Z,56.67
2022-10-11T18:12:21.151Z,56.67
2022-10-11T18:17:29.213Z,57.27
2022-10-11T18:22:37.180Z,57.48
2022-10-11T18:27:46.054Z,57.54
2022-10-11T18:32:54.663Z,57.33
2022-10-11T18:38:03.152Z,57.72
2022-10-11T18:43:11.228Z,57.77
2022-10-11T18:48:19.726Z,58.08
2022-10-11T18:53:27.732Z,58.56
2022-10-11T18:58:37.221Z,58.85
2022-10-11T19:03:45.899Z,59.22
2022-10-11T19:08:56.245Z,59.59
2022-10-11T19:14:07.400Z,59.55
2022-10-11T19:19:15.945Z,59.72
2022-10-11T19:24:26.137Z,59.76
2022-10-11T19:29:35.119Z,59.50
2022-10-11T19:34:43.032Z,59.74
2022-10-11T19:39:51.151Z,59.73
2022-10-11T19:44:59.351Z,59.75
2022-10-11T19:50:08.602Z,60.07
2022-10-11T19:55:16.632Z,59.77
2022-10-11T20:00:24.470Z,60.08
2022-10-11T20:05:32.592Z,59.73
2022-10-11T20:10:40.570Z,59.55
2022-10-11T20:15:48.178Z,59.32
2022-10-11T20:21:01.163Z,59.30
2022-10-11T20:26:11.423Z,59.55
2022-10-11T20:31:21.391Z,59.56
2022-10-11T20:36:30.476Z,59.77
2022-10-11T20:41:40.181Z,59.93
2022-10-11T20:46:48.541Z,59.92
2022-10-11T20:51:56.534Z,60.25
2022-10-11T20:57:04.608Z,60.61
2022-10-11T21:02:17.994Z,61.25
2022-10-11T21:07:26.885Z,61.52
2022-10-11T21:12:35.081Z,62.21
2022-10-11T21:17:43.629Z,62.61
2022-10-11T21:22:51.670Z,62.90
2022-10-11T21:27:59.462Z,63.40
2022-10-11T21:33:07.289Z,63.41
2022-10-11T21:38:15.277Z,63.54
2022-10-11T21:43:23.380Z,63.62
2022-10-11T21:48:32.636Z,63.69
2022-10-11T21:53:39.632Z,63.87
2022-10-11T21:58:49.954Z,63.85
2022-10-11T22:03:58.392Z,63.90
2022-10-11T22:09:07.658Z,63.92
2022-10-11T22:14:15.862Z,64.26
2022-10-11T22:19:23.207Z,64.47
2022-10-11T22:24:32.052Z,64.67
2022-10-11T22:29:40.115Z,64.85
2022-10-11T22:34:48.202Z,64.75
2022-10-11T22:39:56.124Z,64.76
2022-10-11T22:45:04.062Z,64.92
2022-10-11T22:50:13.088Z,64.71
2022-10-11T22:55:21.445Z,64.78
2022-10-11T23:00:29.427Z,65.19
2022-10-11T23:05:37.398Z,65.52
2022-10-11T23:10:45.853Z,65.20
2022-10-11T23:15:53.941Z,65.55
2022-10-11T23:21:05.243Z,65.55
2022-10-11T23:26:15.544Z,65.69
2022-10-11T23:31:23.550Z,65.91
2022-10-11T23:36:31.420Z,66.10
2022-10-11T23:41:39.552Z,65.95
2022-10-11T23:46:47.695Z,65.99
2022-10-11T23:51:55.950Z,66.33
2022-10-11T23:57:03.445Z,66.20
